sensor_id;sensor_type;location;lat;lon;timestamp;P1;durP1;ratioP1;P2;durP2;ratioP2
60257;SDS011;46115;44.484;11.314;2023-06-26T00:03:34;5.53;;;4.28;;
60257;SDS011;46115;44.484;11.314;2023-06-26T00:07:36;6.20;;;4.22;;
60257;SDS011;46115;44.484;11.314;2023-06-26T00:11:39;5.55;;;4.38;;
60257;SDS011;46115;44.484;11.314;2023-06-26T00:15:43;6.18;;;4.68;;
60257;SDS011;46115;44.484;11.314;2023-06-26T00:19:45;7.00;;;4.30;;
60257;SDS011;46115;44.484;11.314;2023-06-26T00:23:47;7.82;;;4.50;;
60257;SDS011;46115;44.484;11.314;2023-06-26T00:27:50;6.95;;;4.38;;
60257;SDS011;46115;44.484;11.314;2023-06-26T00:31:53;6.82;;;4.25;;
60257;SDS011;46115;44.484;11.314;2023-06-26T00:35:56;5.78;;;4.78;;
60257;SDS011;46115;44.484;11.314;2023-06-26T00:39:58;6.50;;;4.40;;
60257;SDS011;46115;44.484;11.314;2023-06-26T00:44:01;5.55;;;4.28;;
60257;SDS011;46115;44.484;11.314;2023-06-26T00:48:05;4.80;;;4.30;;
60257;SDS011;46115;44.484;11.314;2023-06-26T00:52:07;9.02;;;4.32;;
60257;SDS011;46115;44.484;11.314;2023-06-26T00:56:10;4.97;;;4.47;;
60257;SDS011;46115;44.484;11.314;2023-06-26T01:00:14;5.43;;;4.32;;
60257;SDS011;46115;44.484;11.314;2023-06-26T01:04:18;6.07;;;4.50;;
60257;SDS011;46115;44.484;11.314;2023-06-26T01:08:21;5.32;;;4.07;;
60257;SDS011;46115;44.484;11.314;2023-06-26T01:12:26;5.55;;;4.57;;
60257;SDS011;46115;44.484;11.314;2023-06-26T01:16:28;5.88;;;4.30;;
60257;SDS011;46115;44.484;11.314;2023-06-26T01:20:34;4.82;;;4.38;;
60257;SDS011;46115;44.484;11.314;2023-06-26T01:24:42;5.68;;;4.38;;
60257;SDS011;46115;44.484;11.314;2023-06-26T01:28:57;5.28;;;4.55;;
60257;SDS011;46115;44.484;11.314;2023-06-26T01:33:01;4.72;;;3.92;;
60257;SDS011;46115;44.484;11.314;2023-06-26T01:37:04;4.60;;;4.20;;
60257;SDS011;46115;44.484;11.314;2023-06-26T01:41:08;5.78;;;4.30;;
60257;SDS011;46115;44.484;11.314;2023-06-26T01:45:14;5.22;;;4.47;;
60257;SDS011;46115;44.484;11.314;2023-06-26T01:49:28;4.70;;;4.20;;
60257;SDS011;46115;44.484;11.314;2023-06-26T01:53:36;4.72;;;4.18;;
60257;SDS011;46115;44.484;11.314;2023-06-26T01:57:42;6.47;;;4.20;;
60257;SDS011;46115;44.484;11.314;2023-06-26T02:01:49;8.05;;;4.20;;
60257;SDS011;46115;44.484;11.314;2023-06-26T02:05:54;6.18;;;4.40;;
60257;SDS011;46115;44.484;11.314;2023-06-26T02:09:56;6.10;;;4.57;;
60257;SDS011;46115;44.484;11.314;2023-06-26T02:13:58;5.22;;;4.43;;
60257;SDS011;46115;44.484;11.314;2023-06-26T02:18:02;7.10;;;4.70;;
60257;SDS011;46115;44.484;11.314;2023-06-26T02:22:05;6.22;;;4.50;;
60257;SDS011;46115;44.484;11.314;2023-06-26T02:26:07;7.03;;;4.20;;
60257;SDS011;46115;44.484;11.314;2023-06-26T02:30:10;5.25;;;4.32;;
60257;SDS011;46115;44.484;11.314;2023-06-26T02:34:14;5.50;;;4.72;;
60257;SDS011;46115;44.484;11.314;2023-06-26T02:38:16;4.95;;;4.45;;
60257;SDS011;46115;44.484;11.314;2023-06-26T02:42:21;6.50;;;4.60;;
60257;SDS011;46115;44.484;11.314;2023-06-26T02:46:23;5.47;;;4.32;;
60257;SDS011;46115;44.484;11.314;2023-06-26T02:50:27;7.03;;;4.55;;
60257;SDS011;46115;44.484;11.314;2023-06-26T02:54:42;5.22;;;4.57;;
60257;SDS011;46115;44.484;11.314;2023-06-26T02:58:45;5.97;;;4.40;;
60257;SDS011;46115;44.484;11.314;2023-06-26T03:02:47;5.28;;;4.47;;
60257;SDS011;46115;44.484;11.314;2023-06-26T03:06:54;5.63;;;4.53;;
60257;SDS011;46115;44.484;11.314;2023-06-26T03:10:56;4.88;;;4.38;;
60257;SDS011;46115;44.484;11.314;2023-06-26T03:14:59;5.30;;;4.50;;
60257;SDS011;46115;44.484;11.314;2023-06-26T03:19:01;7.05;;;4.72;;
60257;SDS011;46115;44.484;11.314;2023-06-26T03:23:09;5.10;;;4.25;;
60257;SDS011;46115;44.484;11.314;2023-06-26T03:27:11;7.07;;;4.82;;
60257;SDS011;46115;44.484;11.314;2023-06-26T03:31:14;5.22;;;4.60;;
60257;SDS011;46115;44.484;11.314;2023-06-26T03:35:17;7.85;;;4.80;;
60257;SDS011;46115;44.484;11.314;2023-06-26T03:39:21;5.40;;;4.75;;
60257;SDS011;46115;44.484;11.314;2023-06-26T03:43:23;6.03;;;4.40;;
60257;SDS011;46115;44.484;11.314;2023-06-26T03:47:36;6.55;;;4.63;;
60257;SDS011;46115;44.484;11.314;2023-06-26T03:51:40;5.70;;;4.65;;
60257;SDS011;46115;44.484;11.314;2023-06-26T03:55:44;4.90;;;4.20;;
60257;SDS011;46115;44.484;11.314;2023-06-26T03:59:46;4.97;;;4.20;;
60257;SDS011;46115;44.484;11.314;2023-06-26T04:03:49;6.20;;;4.70;;
60257;SDS011;46115;44.484;11.314;2023-06-26T04:07:51;5.72;;;4.47;;
60257;SDS011;46115;44.484;11.314;2023-06-26T04:11:55;5.20;;;4.40;;
60257;SDS011;46115;44.484;11.314;2023-06-26T04:15:58;8.35;;;4.80;;
60257;SDS011;46115;44.484;11.314;2023-06-26T04:20:00;4.30;;;3.90;;
60257;SDS011;46115;44.484;11.314;2023-06-26T04:24:05;7.07;;;4.40;;
60257;SDS011;46115;44.484;11.314;2023-06-26T04:28:09;6.82;;;4.30;;
60257;SDS011;46115;44.484;11.314;2023-06-26T04:32:12;6.72;;;4.07;;
60257;SDS011;46115;44.484;11.314;2023-06-26T04:36:15;4.75;;;4.30;;
60257;SDS011;46115;44.484;11.314;2023-06-26T04:40:17;4.82;;;4.00;;
60257;SDS011;46115;44.484;11.314;2023-06-26T04:44:21;6.50;;;4.50;;
60257;SDS011;46115;44.484;11.314;2023-06-26T04:48:24;6.25;;;4.15;;
60257;SDS011;46115;44.484;11.314;2023-06-26T04:52:28;4.57;;;4.13;;
60257;SDS011;46115;44.484;11.314;2023-06-26T04:56:30;6.15;;;4.13;;
60257;SDS011;46115;44.484;11.314;2023-06-26T05:00:34;5.25;;;4.00;;
60257;SDS011;46115;44.484;11.314;2023-06-26T05:04:37;6.10;;;3.92;;
60257;SDS011;46115;44.484;11.314;2023-06-26T05:08:40;5.75;;;4.13;;
60257;SDS011;46115;44.484;11.314;2023-06-26T05:12:43;4.30;;;3.90;;
60257;SDS011;46115;44.484;11.314;2023-06-26T05:16:46;4.45;;;4.05;;
60257;SDS011;46115;44.484;11.314;2023-06-26T05:20:49;4.38;;;3.92;;
60257;SDS011;46115;44.484;11.314;2023-06-26T05:24:52;6.97;;;4.00;;
60257;SDS011;46115;44.484;11.314;2023-06-26T05:28:57;4.90;;;3.95;;
60257;SDS011;46115;44.484;11.314;2023-06-26T05:33:02;5.35;;;3.50;;
60257;SDS011;46115;44.484;11.314;2023-06-26T05:37:06;6.68;;;3.95;;
60257;SDS011;46115;44.484;11.314;2023-06-26T05:41:10;4.88;;;3.45;;
60257;SDS011;46115;44.484;11.314;2023-06-26T05:45:13;5.72;;;4.50;;
60257;SDS011;46115;44.484;11.314;2023-06-26T05:49:17;4.20;;;3.63;;
60257;SDS011;46115;44.484;11.314;2023-06-26T05:53:20;5.45;;;3.67;;
60257;SDS011;46115;44.484;11.314;2023-06-26T05:57:22;4.47;;;4.00;;
60257;SDS011;46115;44.484;11.314;2023-06-26T06:01:25;4.50;;;3.38;;
60257;SDS011;46115;44.484;11.314;2023-06-26T06:05:29;5.63;;;3.65;;
60257;SDS011;46115;44.484;11.314;2023-06-26T06:09:31;3.85;;;3.38;;
60257;SDS011;46115;44.484;11.314;2023-06-26T06:13:34;5.72;;;3.60;;
60257;SDS011;46115;44.484;11.314;2023-06-26T06:17:36;11.82;;;3.95;;
60257;SDS011;46115;44.484;11.314;2023-06-26T06:21:40;4.15;;;3.40;;
60257;SDS011;46115;44.484;11.314;2023-06-26T06:25:43;4.00;;;3.60;;
60257;SDS011;46115;44.484;11.314;2023-06-26T06:29:46;6.57;;;3.40;;
60257;SDS011;46115;44.484;11.314;2023-06-26T06:33:48;5.55;;;3.53;;
60257;SDS011;46115;44.484;11.314;2023-06-26T06:37:52;6.13;;;3.67;;
60257;SDS011;46115;44.484;11.314;2023-06-26T06:41:55;4.55;;;3.30;;
60257;SDS011;46115;44.484;11.314;2023-06-26T06:45:57;6.20;;;3.90;;
60257;SDS011;46115;44.484;11.314;2023-06-26T06:50:00;4.82;;;3.50;;
60257;SDS011;46115;44.484;11.314;2023-06-26T06:54:10;9.85;;;3.90;;
60257;SDS011;46115;44.484;11.314;2023-06-26T06:58:12;8.20;;;3.80;;
60257;SDS011;46115;44.484;11.314;2023-06-26T07:02:17;9.32;;;3.70;;
60257;SDS011;46115;44.484;11.314;2023-06-26T07:06:19;11.15;;;3.85;;
60257;SDS011;46115;44.484;11.314;2023-06-26T07:10:23;8.48;;;4.25;;
60257;SDS011;46115;44.484;11.314;2023-06-26T07:14:26;6.32;;;3.92;;
60257;SDS011;46115;44.484;11.314;2023-06-26T07:18:28;7.45;;;4.30;;
60257;SDS011;46115;44.484;11.314;2023-06-26T07:22:31;8.85;;;3.97;;
60257;SDS011;46115;44.484;11.314;2023-06-26T07:26:34;9.20;;;4.00;;
60257;SDS011;46115;44.484;11.314;2023-06-26T07:30:37;7.03;;;4.43;;
60257;SDS011;46115;44.484;11.314;2023-06-26T07:34:39;7.35;;;4.22;;
60257;SDS011;46115;44.484;11.314;2023-06-26T07:38:42;6.47;;;4.15;;
60257;SDS011;46115;44.484;11.314;2023-06-26T07:42:46;8.80;;;4.50;;
60257;SDS011;46115;44.484;11.314;2023-06-26T07:46:48;7.22;;;4.25;;
60257;SDS011;46115;44.484;11.314;2023-06-26T07:50:51;8.45;;;4.03;;
60257;SDS011;46115;44.484;11.314;2023-06-26T07:54:54;8.93;;;4.57;;
60257;SDS011;46115;44.484;11.314;2023-06-26T07:58:58;10.43;;;3.92;;
60257;SDS011;46115;44.484;11.314;2023-06-26T08:03:02;8.35;;;4.13;;
60257;SDS011;46115;44.484;11.314;2023-06-26T08:07:05;5.70;;;3.97;;
60257;SDS011;46115;44.484;11.314;2023-06-26T08:11:08;7.60;;;4.00;;
60257;SDS011;46115;44.484;11.314;2023-06-26T08:15:11;9.10;;;4.00;;
60257;SDS011;46115;44.484;11.314;2023-06-26T08:19:14;7.28;;;4.10;;
60257;SDS011;46115;44.484;11.314;2023-06-26T08:23:17;7.60;;;4.10;;
60257;SDS011;46115;44.484;11.314;2023-06-26T08:27:20;5.03;;;4.13;;
60257;SDS011;46115;44.484;11.314;2023-06-26T08:31:24;6.70;;;3.70;;
60257;SDS011;46115;44.484;11.314;2023-06-26T08:35:26;5.43;;;3.55;;
60257;SDS011;46115;44.484;11.314;2023-06-26T08:39:29;6.13;;;3.83;;
60257;SDS011;46115;44.484;11.314;2023-06-26T08:43:31;5.45;;;4.05;;
60257;SDS011;46115;44.484;11.314;2023-06-26T08:47:35;4.45;;;3.60;;
60257;SDS011;46115;44.484;11.314;2023-06-26T08:51:39;7.30;;;3.72;;
60257;SDS011;46115;44.484;11.314;2023-06-26T08:55:47;4.50;;;3.60;;
60257;SDS011;46115;44.484;11.314;2023-06-26T08:59:53;5.80;;;3.90;;
60257;SDS011;46115;44.484;11.314;2023-06-26T09:03:58;4.70;;;3.70;;
60257;SDS011;46115;44.484;11.314;2023-06-26T09:08:00;5.28;;;4.00;;
60257;SDS011;46115;44.484;11.314;2023-06-26T09:12:03;5.07;;;3.92;;
60257;SDS011;46115;44.484;11.314;2023-06-26T09:16:06;8.82;;;3.90;;
60257;SDS011;46115;44.484;11.314;2023-06-26T09:20:11;6.25;;;3.92;;
60257;SDS011;46115;44.484;11.314;2023-06-26T09:24:15;5.50;;;3.83;;
60257;SDS011;46115;44.484;11.314;2023-06-26T09:28:18;5.68;;;4.32;;
60257;SDS011;46115;44.484;11.314;2023-06-26T09:32:23;4.72;;;3.88;;
60257;SDS011;46115;44.484;11.314;2023-06-26T09:36:28;5.82;;;4.28;;
60257;SDS011;46115;44.484;11.314;2023-06-26T09:40:33;6.57;;;3.60;;
60257;SDS011;46115;44.484;11.314;2023-06-26T09:44:43;5.55;;;3.90;;
60257;SDS011;46115;44.484;11.314;2023-06-26T09:48:45;8.38;;;3.90;;
60257;SDS011;46115;44.484;11.314;2023-06-26T09:52:51;5.38;;;3.85;;
60257;SDS011;46115;44.484;11.314;2023-06-26T09:56:55;6.90;;;4.22;;
60257;SDS011;46115;44.484;11.314;2023-06-26T10:00:58;4.65;;;3.78;;
60257;SDS011;46115;44.484;11.314;2023-06-26T10:05:00;5.20;;;3.85;;
60257;SDS011;46115;44.484;11.314;2023-06-26T10:09:05;5.22;;;3.70;;
60257;SDS011;46115;44.484;11.314;2023-06-26T10:13:11;5.47;;;3.72;;
60257;SDS011;46115;44.484;11.314;2023-06-26T10:17:18;5.70;;;3.70;;
60257;SDS011;46115;44.484;11.314;2023-06-26T10:21:22;6.43;;;3.83;;
60257;SDS011;46115;44.484;11.314;2023-06-26T10:25:27;5.82;;;3.70;;
60257;SDS011;46115;44.484;11.314;2023-06-26T10:29:31;4.68;;;3.85;;
60257;SDS011;46115;44.484;11.314;2023-06-26T10:33:36;5.60;;;3.90;;
60257;SDS011;46115;44.484;11.314;2023-06-26T10:37:40;4.60;;;3.70;;
60257;SDS011;46115;44.484;11.314;2023-06-26T10:41:45;7.18;;;4.00;;
60257;SDS011;46115;44.484;11.314;2023-06-26T10:45:48;6.45;;;3.70;;
60257;SDS011;46115;44.484;11.314;2023-06-26T10:49:53;6.03;;;3.92;;
60257;SDS011;46115;44.484;11.314;2023-06-26T10:53:55;9.73;;;3.92;;
60257;SDS011;46115;44.484;11.314;2023-06-26T10:57:59;5.10;;;3.85;;
60257;SDS011;46115;44.484;11.314;2023-06-26T11:02:04;9.30;;;4.10;;
60257;SDS011;46115;44.484;11.314;2023-06-26T11:06:10;4.78;;;4.00;;
60257;SDS011;46115;44.484;11.314;2023-06-26T11:10:14;4.40;;;4.00;;
60257;SDS011;46115;44.484;11.314;2023-06-26T11:14:20;4.95;;;4.35;;
60257;SDS011;46115;44.484;11.314;2023-06-26T11:18:23;6.47;;;4.03;;
60257;SDS011;46115;44.484;11.314;2023-06-26T11:22:26;6.55;;;4.10;;
60257;SDS011;46115;44.484;11.314;2023-06-26T11:26:29;5.38;;;4.28;;
60257;SDS011;46115;44.484;11.314;2023-06-26T11:30:33;5.68;;;3.97;;
60257;SDS011;46115;44.484;11.314;2023-06-26T11:34:36;5.20;;;4.28;;
60257;SDS011;46115;44.484;11.314;2023-06-26T11:38:39;7.43;;;4.22;;
60257;SDS011;46115;44.484;11.314;2023-06-26T11:42:41;7.07;;;4.10;;
60257;SDS011;46115;44.484;11.314;2023-06-26T11:46:46;5.53;;;4.18;;
60257;SDS011;46115;44.484;11.314;2023-06-26T11:50:50;7.55;;;4.47;;
60257;SDS011;46115;44.484;11.314;2023-06-26T11:54:52;5.10;;;4.32;;
60257;SDS011;46115;44.484;11.314;2023-06-26T11:58:57;6.05;;;3.97;;
60257;SDS011;46115;44.484;11.314;2023-06-26T12:03:02;6.40;;;4.38;;
60257;SDS011;46115;44.484;11.314;2023-06-26T12:07:05;4.85;;;4.22;;
60257;SDS011;46115;44.484;11.314;2023-06-26T12:11:09;8.77;;;4.30;;
60257;SDS011;46115;44.484;11.314;2023-06-26T12:15:13;6.55;;;4.10;;
60257;SDS011;46115;44.484;11.314;2023-06-26T12:19:23;4.68;;;4.10;;
60257;SDS011;46115;44.484;11.314;2023-06-26T12:23:31;4.50;;;4.10;;
60257;SDS011;46115;44.484;11.314;2023-06-26T12:27:35;5.88;;;4.43;;
60257;SDS011;46115;44.484;11.314;2023-06-26T12:31:39;4.80;;;4.32;;
60257;SDS011;46115;44.484;11.314;2023-06-26T12:35:44;6.57;;;4.07;;
60257;SDS011;46115;44.484;11.314;2023-06-26T12:39:48;8.40;;;4.20;;
60257;SDS011;46115;44.484;11.314;2023-06-26T12:43:55;7.40;;;4.10;;
60257;SDS011;46115;44.484;11.314;2023-06-26T12:48:06;5.20;;;4.22;;
60257;SDS011;46115;44.484;11.314;2023-06-26T12:52:11;7.32;;;4.40;;
60257;SDS011;46115;44.484;11.314;2023-06-26T12:56:14;5.35;;;3.97;;
60257;SDS011;46115;44.484;11.314;2023-06-26T13:00:17;6.35;;;4.18;;
60257;SDS011;46115;44.484;11.314;2023-06-26T13:04:20;5.40;;;4.22;;
60257;SDS011;46115;44.484;11.314;2023-06-26T13:08:24;6.22;;;4.63;;
60257;SDS011;46115;44.484;11.314;2023-06-26T13:12:26;4.95;;;4.50;;
60257;SDS011;46115;44.484;11.314;2023-06-26T13:16:29;5.20;;;4.10;;
60257;SDS011;46115;44.484;11.314;2023-06-26T13:20:32;4.43;;;4.03;;
60257;SDS011;46115;44.484;11.314;2023-06-26T13:24:36;6.05;;;4.10;;
60257;SDS011;46115;44.484;11.314;2023-06-26T13:28:39;4.43;;;4.03;;
60257;SDS011;46115;44.484;11.314;2023-06-26T13:32:41;6.43;;;4.43;;
60257;SDS011;46115;44.484;11.314;2023-06-26T13:36:45;7.15;;;4.35;;
60257;SDS011;46115;44.484;11.314;2023-06-26T13:40:49;7.20;;;4.65;;
60257;SDS011;46115;44.484;11.314;2023-06-26T13:44:51;6.93;;;4.03;;
60257;SDS011;46115;44.484;11.314;2023-06-26T13:48:54;4.85;;;4.40;;
60257;SDS011;46115;44.484;11.314;2023-06-26T13:52:56;6.10;;;4.72;;
60257;SDS011;46115;44.484;11.314;2023-06-26T13:57:00;7.45;;;4.15;;
60257;SDS011;46115;44.484;11.314;2023-06-26T14:01:03;4.97;;;4.13;;
60257;SDS011;46115;44.484;11.314;2023-06-26T14:05:06;4.95;;;4.45;;
60257;SDS011;46115;44.484;11.314;2023-06-26T14:09:12;4.43;;;4.03;;
60257;SDS011;46115;44.484;11.314;2023-06-26T14:13:15;6.20;;;4.25;;
60257;SDS011;46115;44.484;11.314;2023-06-26T14:17:18;7.35;;;4.43;;
60257;SDS011;46115;44.484;11.314;2023-06-26T14:21:20;5.57;;;4.03;;
60257;SDS011;46115;44.484;11.314;2023-06-26T14:25:23;7.28;;;4.30;;
60257;SDS011;46115;44.484;11.314;2023-06-26T14:29:26;5.65;;;4.43;;
60257;SDS011;46115;44.484;11.314;2023-06-26T14:33:29;4.93;;;4.20;;
60257;SDS011;46115;44.484;11.314;2023-06-26T14:37:31;4.32;;;3.92;;
60257;SDS011;46115;44.484;11.314;2023-06-26T14:41:34;5.05;;;4.30;;
60257;SDS011;46115;44.484;11.314;2023-06-26T14:45:38;5.75;;;4.63;;
60257;SDS011;46115;44.484;11.314;2023-06-26T14:49:40;6.38;;;4.45;;
60257;SDS011;46115;44.484;11.314;2023-06-26T14:53:42;7.13;;;4.15;;
60257;SDS011;46115;44.484;11.314;2023-06-26T14:57:45;5.53;;;4.60;;
60257;SDS011;46115;44.484;11.314;2023-06-26T15:01:48;5.40;;;4.18;;
60257;SDS011;46115;44.484;11.314;2023-06-26T15:05:51;6.93;;;4.30;;
60257;SDS011;46115;44.484;11.314;2023-06-26T15:09:53;4.43;;;3.90;;
60257;SDS011;46115;44.484;11.314;2023-06-26T15:13:57;5.47;;;4.10;;
60257;SDS011;46115;44.484;11.314;2023-06-26T15:18:01;6.35;;;4.50;;
60257;SDS011;46115;44.484;11.314;2023-06-26T15:22:04;4.70;;;4.18;;
60257;SDS011;46115;44.484;11.314;2023-06-26T15:26:07;5.80;;;4.35;;
60257;SDS011;46115;44.484;11.314;2023-06-26T15:30:10;5.22;;;4.22;;
60257;SDS011;46115;44.484;11.314;2023-06-26T15:34:15;7.45;;;4.68;;
60257;SDS011;46115;44.484;11.314;2023-06-26T15:38:17;5.22;;;4.20;;
60257;SDS011;46115;44.484;11.314;2023-06-26T15:42:20;4.70;;;4.20;;
60257;SDS011;46115;44.484;11.314;2023-06-26T15:46:23;6.15;;;4.25;;
60257;SDS011;46115;44.484;11.314;2023-06-26T15:50:26;5.75;;;4.22;;
60257;SDS011;46115;44.484;11.314;2023-06-26T15:54:30;5.53;;;3.95;;
60257;SDS011;46115;44.484;11.314;2023-06-26T15:58:32;5.30;;;4.57;;
60257;SDS011;46115;44.484;11.314;2023-06-26T16:02:36;5.07;;;4.13;;
60257;SDS011;46115;44.484;11.314;2023-06-26T16:06:40;4.57;;;4.15;;
60257;SDS011;46115;44.484;11.314;2023-06-26T16:10:42;8.25;;;4.28;;
60257;SDS011;46115;44.484;11.314;2023-06-26T16:14:45;4.57;;;4.05;;
60257;SDS011;46115;44.484;11.314;2023-06-26T16:18:47;4.50;;;4.10;;
60257;SDS011;46115;44.484;11.314;2023-06-26T16:22:51;6.88;;;4.35;;
60257;SDS011;46115;44.484;11.314;2023-06-26T16:26:55;5.82;;;4.30;;
60257;SDS011;46115;44.484;11.314;2023-06-26T16:30:57;4.57;;;4.00;;
60257;SDS011;46115;44.484;11.314;2023-06-26T16:34:59;7.82;;;4.30;;
60257;SDS011;46115;44.484;11.314;2023-06-26T16:39:03;7.88;;;4.20;;
60257;SDS011;46115;44.484;11.314;2023-06-26T16:43:06;6.22;;;4.40;;
60257;SDS011;46115;44.484;11.314;2023-06-26T16:47:08;5.57;;;4.68;;
60257;SDS011;46115;44.484;11.314;2023-06-26T16:51:11;5.68;;;3.90;;
60257;SDS011;46115;44.484;11.314;2023-06-26T16:55:15;4.90;;;4.40;;
60257;SDS011;46115;44.484;11.314;2023-06-26T16:59:18;4.90;;;4.40;;
60257;SDS011;46115;44.484;11.314;2023-06-26T17:03:21;5.35;;;4.25;;
60257;SDS011;46115;44.484;11.314;2023-06-26T17:07:23;5.57;;;4.15;;
60257;SDS011;46115;44.484;11.314;2023-06-26T17:11:27;4.90;;;4.40;;
60257;SDS011;46115;44.484;11.314;2023-06-26T17:15:30;5.70;;;4.50;;
60257;SDS011;46115;44.484;11.314;2023-06-26T17:19:33;5.70;;;4.57;;
60257;SDS011;46115;44.484;11.314;2023-06-26T17:23:36;6.38;;;4.40;;
60257;SDS011;46115;44.484;11.314;2023-06-26T17:27:40;5.40;;;4.47;;
60257;SDS011;46115;44.484;11.314;2023-06-26T17:31:43;5.97;;;4.43;;
60257;SDS011;46115;44.484;11.314;2023-06-26T17:35:45;5.82;;;4.40;;
60257;SDS011;46115;44.484;11.314;2023-06-26T17:39:48;7.45;;;4.60;;
60257;SDS011;46115;44.484;11.314;2023-06-26T17:43:54;6.05;;;4.57;;
60257;SDS011;46115;44.484;11.314;2023-06-26T17:47:57;8.15;;;4.88;;
60257;SDS011;46115;44.484;11.314;2023-06-26T17:52:00;7.32;;;4.05;;
60257;SDS011;46115;44.484;11.314;2023-06-26T17:56:02;6.40;;;4.93;;
60257;SDS011;46115;44.484;11.314;2023-06-26T18:00:07;5.45;;;4.95;;
60257;SDS011;46115;44.484;11.314;2023-06-26T18:04:13;5.82;;;4.63;;
60257;SDS011;46115;44.484;11.314;2023-06-26T18:08:16;7.10;;;5.07;;
60257;SDS011;46115;44.484;11.314;2023-06-26T18:12:19;7.63;;;5.30;;
60257;SDS011;46115;44.484;11.314;2023-06-26T18:16:23;7.50;;;5.38;;
60257;SDS011;46115;44.484;11.314;2023-06-26T18:20:25;5.82;;;5.15;;
60257;SDS011;46115;44.484;11.314;2023-06-26T18:24:28;7.28;;;5.10;;
60257;SDS011;46115;44.484;11.314;2023-06-26T18:28:30;10.35;;;5.18;;
60257;SDS011;46115;44.484;11.314;2023-06-26T18:32:34;9.98;;;5.60;;
60257;SDS011;46115;44.484;11.314;2023-06-26T18:36:36;8.40;;;5.57;;
60257;SDS011;46115;44.484;11.314;2023-06-26T18:40:39;8.68;;;5.05;;
60257;SDS011;46115;44.484;11.314;2023-06-26T18:44:42;13.50;;;5.10;;
60257;SDS011;46115;44.484;11.314;2023-06-26T18:48:46;7.50;;;5.03;;
60257;SDS011;46115;44.484;11.314;2023-06-26T18:52:49;8.52;;;5.32;;
60257;SDS011;46115;44.484;11.314;2023-06-26T18:56:51;9.63;;;5.45;;
60257;SDS011;46115;44.484;11.314;2023-06-26T19:00:55;8.27;;;5.07;;
60257;SDS011;46115;44.484;11.314;2023-06-26T19:05:00;6.18;;;5.13;;
60257;SDS011;46115;44.484;11.314;2023-06-26T19:09:02;8.05;;;5.38;;
60257;SDS011;46115;44.484;11.314;2023-06-26T19:13:05;10.35;;;5.30;;
60257;SDS011;46115;44.484;11.314;2023-06-26T19:17:07;7.32;;;5.57;;
60257;SDS011;46115;44.484;11.314;2023-06-26T19:21:11;9.40;;;5.43;;
60257;SDS011;46115;44.484;11.314;2023-06-26T19:25:14;9.38;;;5.53;;
60257;SDS011;46115;44.484;11.314;2023-06-26T19:29:16;7.03;;;5.53;;
60257;SDS011;46115;44.484;11.314;2023-06-26T19:33:19;6.40;;;5.47;;
60257;SDS011;46115;44.484;11.314;2023-06-26T19:37:23;9.55;;;5.53;;
60257;SDS011;46115;44.484;11.314;2023-06-26T19:41:25;7.72;;;5.65;;
60257;SDS011;46115;44.484;11.314;2023-06-26T19:45:28;10.90;;;5.75;;
60257;SDS011;46115;44.484;11.314;2023-06-26T19:49:30;8.05;;;5.85;;
60257;SDS011;46115;44.484;11.314;2023-06-26T19:53:34;7.63;;;5.70;;
60257;SDS011;46115;44.484;11.314;2023-06-26T22:06:07;8.07;;;5.78;;
60257;SDS011;46115;44.484;11.314;2023-06-26T22:10:10;14.52;;;6.07;;
60257;SDS011;46115;44.484;11.314;2023-06-26T22:14:13;9.10;;;6.28;;
60257;SDS011;46115;44.484;11.314;2023-06-26T22:18:15;8.35;;;5.93;;
60257;SDS011;46115;44.484;11.314;2023-06-26T22:22:19;7.88;;;5.60;;
60257;SDS011;46115;44.484;11.314;2023-06-26T22:26:22;6.80;;;6.00;;
60257;SDS011;46115;44.484;11.314;2023-06-26T22:30:24;6.55;;;5.88;;
60257;SDS011;46115;44.484;11.314;2023-06-26T22:34:27;7.43;;;6.55;;
60257;SDS011;46115;44.484;11.314;2023-06-26T22:38:31;8.40;;;6.25;;
60257;SDS011;46115;44.484;11.314;2023-06-26T22:42:33;7.38;;;5.95;;
60257;SDS011;46115;44.484;11.314;2023-06-26T22:46:36;8.07;;;6.07;;
60257;SDS011;46115;44.484;11.314;2023-06-26T22:50:38;9.38;;;5.95;;
60257;SDS011;46115;44.484;11.314;2023-06-26T22:54:42;9.38;;;6.60;;
60257;SDS011;46115;44.484;11.314;2023-06-26T22:58:45;7.25;;;6.13;;
60257;SDS011;46115;44.484;11.314;2023-06-26T23:02:47;7.72;;;5.88;;
60257;SDS011;46115;44.484;11.314;2023-06-26T23:06:50;7.43;;;6.32;;
60257;SDS011;46115;44.484;11.314;2023-06-26T23:10:58;7.78;;;6.10;;
60257;SDS011;46115;44.484;11.314;2023-06-26T23:15:01;7.30;;;6.00;;
60257;SDS011;46115;44.484;11.314;2023-06-26T23:19:04;8.13;;;5.82;;
60257;SDS011;46115;44.484;11.314;2023-06-26T23:23:06;8.80;;;6.00;;
60257;SDS011;46115;44.484;11.314;2023-06-26T23:27:10;7.72;;;5.90;;
60257;SDS011;46115;44.484;11.314;2023-06-26T23:31:12;7.70;;;6.45;;
60257;SDS011;46115;44.484;11.314;2023-06-26T23:35:16;6.57;;;5.88;;
60257;SDS011;46115;44.484;11.314;2023-06-26T23:39:19;8.10;;;6.32;;
60257;SDS011;46115;44.484;11.314;2023-06-26T23:43:23;7.18;;;6.38;;
60257;SDS011;46115;44.484;11.314;2023-06-26T23:47:26;8.00;;;6.53;;
60257;SDS011;46115;44.484;11.314;2023-06-26T23:51:28;7.65;;;6.28;;
60257;SDS011;46115;44.484;11.314;2023-06-26T23:55:30;9.32;;;6.90;;
60257;SDS011;46115;44.484;11.314;2023-06-26T23:59:34;11.43;;;7.25;;
